Kendalia, Texas
Current Conditions -  °F | °C
As of 4:35 PM on Wednesday 22 Oct 2014 (Local Time) from K5C1 Reporting Station
Scattered Clouds Scattered Clouds  
Wind Chill: 81°   Ceiling: Unl
Heat Index: 81°   Visibility: 10mi
Dew Point: 50°   Wind: 3mph
Humidity: 34%   Direction: 180°S
Pressure: 30.07"   Gusts: NA
Location:  29.97°N, 98.52°W
Report Text: K5C1 222135Z AUTO 18003KT 10SM SCT110 27/10 A3007 RMK AO1 P0003
Loading
Personal Weather Stations






























Interactive Weather Map
Tropical Storm Tracking
New forecast layout! Learn more

10-Day Weather Forecast

Advertisements
Track Severe Weather on mobile